Terminal Aerodrome Forecast
Issued by NWS

Home | Current Version | Previous Version | Text Only | Print | Product List | Glossary On
Versions: 1 2 3 4 5 6 7 8 9 10 11 12 13 14 15 16 17 18 19 20 21 22 23 24 25 26 27 28 29 30 31 32 33 34 35 36 37 38 39 40 41 42 43 44 45 46 47 48 49
000
FTUS45 KBOU 031720
TAFAPA
TAF
KAPA 031720Z 0318/0418 23008KT P6SM VCSH BKN080 OVC120
      TEMPO 0322/0402 VRB12G28KT -TSRA OVC070CB
     FM040300 26010KT P6SM BKN080 BKN140
     FM040600 21008KT P6SM SCT100 SCT150
     FM041400 VRB06KT P6SM SCT090 BKN140=

USA.gov is the U.S. government's official web portal to all federal, state and local government web resources and services.